sensor_id;sensor_type;location;lat;lon;timestamp;temperature;humidity
6627;DHT22;3349;49.830;8.748;2022-07-17T00:00:59;15.60;51.30
6627;DHT22;3349;49.830;8.748;2022-07-17T00:03:27;15.50;51.80
6627;DHT22;3349;49.830;8.748;2022-07-17T00:05:55;15.40;52.40
6627;DHT22;3349;49.830;8.748;2022-07-17T00:08:22;15.30;52.90
6627;DHT22;3349;49.830;8.748;2022-07-17T00:10:49;15.20;53.40
6627;DHT22;3349;49.830;8.748;2022-07-17T00:13:16;15.20;54.50
6627;DHT22;3349;49.830;8.748;2022-07-17T00:15:43;15.10;55.10
6627;DHT22;3349;49.830;8.748;2022-07-17T00:18:10;15.10;55.70
6627;DHT22;3349;49.830;8.748;2022-07-17T00:20:37;15.00;55.90
6627;DHT22;3349;49.830;8.748;2022-07-17T00:23:05;14.90;56.50
6627;DHT22;3349;49.830;8.748;2022-07-17T00:25:31;14.80;57.30
6627;DHT22;3349;49.830;8.748;2022-07-17T00:27:58;14.80;57.60
6627;DHT22;3349;49.830;8.748;2022-07-17T00:30:25;14.70;57.40
6627;DHT22;3349;49.830;8.748;2022-07-17T00:32:52;14.70;57.80
6627;DHT22;3349;49.830;8.748;2022-07-17T00:35:18;14.60;58.20
6627;DHT22;3349;49.830;8.748;2022-07-17T00:37:47;14.60;58.70
6627;DHT22;3349;49.830;8.748;2022-07-17T00:40:18;14.50;58.80
6627;DHT22;3349;49.830;8.748;2022-07-17T00:42:46;14.40;58.60
6627;DHT22;3349;49.830;8.748;2022-07-17T00:45:13;14.40;59.10
6627;DHT22;3349;49.830;8.748;2022-07-17T00:47:50;14.30;59.70
6627;DHT22;3349;49.830;8.748;2022-07-17T00:50:17;14.30;60.00
6627;DHT22;3349;49.830;8.748;2022-07-17T00:52:44;14.20;61.10
6627;DHT22;3349;49.830;8.748;2022-07-17T00:55:11;14.20;60.00
6627;DHT22;3349;49.830;8.748;2022-07-17T00:57:40;14.10;59.90
6627;DHT22;3349;49.830;8.748;2022-07-17T01:00:09;14.00;60.10
6627;DHT22;3349;49.830;8.748;2022-07-17T01:02:36;14.00;60.60
6627;DHT22;3349;49.830;8.748;2022-07-17T01:05:04;13.90;60.70
6627;DHT22;3349;49.830;8.748;2022-07-17T01:07:33;13.90;61.60
6627;DHT22;3349;49.830;8.748;2022-07-17T01:09:59;13.80;62.00
6627;DHT22;3349;49.830;8.748;2022-07-17T01:12:27;13.70;62.60
6627;DHT22;3349;49.830;8.748;2022-07-17T01:14:55;13.70;63.30
6627;DHT22;3349;49.830;8.748;2022-07-17T01:17:24;13.60;63.50
6627;DHT22;3349;49.830;8.748;2022-07-17T01:19:50;13.60;64.00
6627;DHT22;3349;49.830;8.748;2022-07-17T01:22:19;13.50;64.30
6627;DHT22;3349;49.830;8.748;2022-07-17T01:24:46;13.70;64.90
6627;DHT22;3349;49.830;8.748;2022-07-17T01:27:12;13.40;64.80
6627;DHT22;3349;49.830;8.748;2022-07-17T01:29:39;13.40;65.10
6627;DHT22;3349;49.830;8.748;2022-07-17T01:32:06;13.40;65.10
6627;DHT22;3349;49.830;8.748;2022-07-17T01:34:33;13.40;65.40
6627;DHT22;3349;49.830;8.748;2022-07-17T01:37:00;13.30;65.50
6627;DHT22;3349;49.830;8.748;2022-07-17T01:39:28;13.20;65.90
6627;DHT22;3349;49.830;8.748;2022-07-17T01:42:12;13.20;66.40
6627;DHT22;3349;49.830;8.748;2022-07-17T01:44:39;13.20;66.60
6627;DHT22;3349;49.830;8.748;2022-07-17T01:47:05;13.20;66.90
6627;DHT22;3349;49.830;8.748;2022-07-17T01:49:32;13.10;67.20
6627;DHT22;3349;49.830;8.748;2022-07-17T01:51:59;13.10;66.80
6627;DHT22;3349;49.830;8.748;2022-07-17T01:54:28;13.10;67.10
6627;DHT22;3349;49.830;8.748;2022-07-17T01:56:55;13.00;67.60
6627;DHT22;3349;49.830;8.748;2022-07-17T01:59:22;12.90;67.90
6627;DHT22;3349;49.830;8.748;2022-07-17T02:01:49;12.90;67.90
6627;DHT22;3349;49.830;8.748;2022-07-17T02:04:16;12.90;67.90
6627;DHT22;3349;49.830;8.748;2022-07-17T02:06:43;12.90;68.40
6627;DHT22;3349;49.830;8.748;2022-07-17T02:09:09;12.80;68.80
6627;DHT22;3349;49.830;8.748;2022-07-17T02:11:37;12.80;68.70
6627;DHT22;3349;49.830;8.748;2022-07-17T02:14:04;12.70;68.70
6627;DHT22;3349;49.830;8.748;2022-07-17T02:16:31;12.70;69.10
6627;DHT22;3349;49.830;8.748;2022-07-17T02:18:57;12.60;68.70
6627;DHT22;3349;49.830;8.748;2022-07-17T02:21:24;12.60;68.90
6627;DHT22;3349;49.830;8.748;2022-07-17T02:23:51;12.50;69.00
6627;DHT22;3349;49.830;8.748;2022-07-17T02:26:18;12.50;69.60
6627;DHT22;3349;49.830;8.748;2022-07-17T02:28:46;12.50;70.00
6627;DHT22;3349;49.830;8.748;2022-07-17T02:31:12;12.40;70.30
6627;DHT22;3349;49.830;8.748;2022-07-17T02:33:39;12.40;70.70
6627;DHT22;3349;49.830;8.748;2022-07-17T02:36:06;12.40;71.10
6627;DHT22;3349;49.830;8.748;2022-07-17T02:38:34;12.40;71.50
6627;DHT22;3349;49.830;8.748;2022-07-17T02:41:00;12.40;71.60
6627;DHT22;3349;49.830;8.748;2022-07-17T02:43:27;12.30;71.30
6627;DHT22;3349;49.830;8.748;2022-07-17T02:45:55;12.30;71.30
6627;DHT22;3349;49.830;8.748;2022-07-17T02:48:22;12.30;71.20
6627;DHT22;3349;49.830;8.748;2022-07-17T02:50:49;12.20;71.30
6627;DHT22;3349;49.830;8.748;2022-07-17T02:53:15;12.20;71.50
6627;DHT22;3349;49.830;8.748;2022-07-17T02:55:42;12.20;71.40
6627;DHT22;3349;49.830;8.748;2022-07-17T02:58:09;12.20;71.80
6627;DHT22;3349;49.830;8.748;2022-07-17T03:00:37;12.10;71.90
6627;DHT22;3349;49.830;8.748;2022-07-17T03:03:06;12.10;72.50
6627;DHT22;3349;49.830;8.748;2022-07-17T03:05:33;12.00;72.40
6627;DHT22;3349;49.830;8.748;2022-07-17T03:07:59;12.00;73.20
6627;DHT22;3349;49.830;8.748;2022-07-17T03:10:26;11.90;73.70
6627;DHT22;3349;49.830;8.748;2022-07-17T03:12:53;11.90;73.40
6627;DHT22;3349;49.830;8.748;2022-07-17T03:15:20;11.90;73.70
6627;DHT22;3349;49.830;8.748;2022-07-17T03:17:47;11.90;73.60
6627;DHT22;3349;49.830;8.748;2022-07-17T03:20:15;11.90;73.80
6627;DHT22;3349;49.830;8.748;2022-07-17T03:22:42;11.90;74.00
6627;DHT22;3349;49.830;8.748;2022-07-17T03:25:09;11.80;73.70
6627;DHT22;3349;49.830;8.748;2022-07-17T03:27:36;11.80;73.80
6627;DHT22;3349;49.830;8.748;2022-07-17T03:30:04;11.70;74.30
6627;DHT22;3349;49.830;8.748;2022-07-17T03:32:31;11.80;74.20
6627;DHT22;3349;49.830;8.748;2022-07-17T03:34:58;11.70;74.40
6627;DHT22;3349;49.830;8.748;2022-07-17T03:37:27;11.70;74.70
6627;DHT22;3349;49.830;8.748;2022-07-17T03:39:54;11.60;75.20
6627;DHT22;3349;49.830;8.748;2022-07-17T03:42:21;11.60;75.20
6627;DHT22;3349;49.830;8.748;2022-07-17T03:44:48;11.60;75.00
6627;DHT22;3349;49.830;8.748;2022-07-17T03:47:14;11.60;75.70
6627;DHT22;3349;49.830;8.748;2022-07-17T03:49:41;11.60;75.70
6627;DHT22;3349;49.830;8.748;2022-07-17T03:52:08;11.60;75.70
6627;DHT22;3349;49.830;8.748;2022-07-17T03:54:36;11.60;75.70
6627;DHT22;3349;49.830;8.748;2022-07-17T03:57:03;11.60;75.70
6627;DHT22;3349;49.830;8.748;2022-07-17T03:59:30;11.60;75.70
6627;DHT22;3349;49.830;8.748;2022-07-17T04:01:56;11.60;75.70
6627;DHT22;3349;49.830;8.748;2022-07-17T04:04:23;11.60;75.70
6627;DHT22;3349;49.830;8.748;2022-07-17T04:06:50;11.60;75.70
6627;DHT22;3349;49.830;8.748;2022-07-17T04:09:16;11.60;75.60
6627;DHT22;3349;49.830;8.748;2022-07-17T04:11:45;11.70;75.10
6627;DHT22;3349;49.830;8.748;2022-07-17T04:14:11;11.70;75.40
6627;DHT22;3349;49.830;8.748;2022-07-17T04:16:38;11.70;75.70
6627;DHT22;3349;49.830;8.748;2022-07-17T04:19:05;11.70;75.70
6627;DHT22;3349;49.830;8.748;2022-07-17T04:21:32;11.70;75.70
6627;DHT22;3349;49.830;8.748;2022-07-17T04:23:58;11.70;75.70
6627;DHT22;3349;49.830;8.748;2022-07-17T04:26:25;11.80;76.10
6627;DHT22;3349;49.830;8.748;2022-07-17T04:28:53;11.80;75.90
6627;DHT22;3349;49.830;8.748;2022-07-17T04:31:20;11.80;75.90
6627;DHT22;3349;49.830;8.748;2022-07-17T04:33:47;11.90;76.00
6627;DHT22;3349;49.830;8.748;2022-07-17T04:36:17;11.90;76.00
6627;DHT22;3349;49.830;8.748;2022-07-17T04:38:44;12.00;76.00
6627;DHT22;3349;49.830;8.748;2022-07-17T04:41:11;12.00;76.10
6627;DHT22;3349;49.830;8.748;2022-07-17T04:43:38;12.10;76.20
6627;DHT22;3349;49.830;8.748;2022-07-17T04:46:06;12.10;76.20
6627;DHT22;3349;49.830;8.748;2022-07-17T04:48:32;12.20;76.20
6627;DHT22;3349;49.830;8.748;2022-07-17T04:50:59;12.30;75.70
6627;DHT22;3349;49.830;8.748;2022-07-17T04:53:26;12.40;75.30
6627;DHT22;3349;49.830;8.748;2022-07-17T04:55:54;12.50;75.30
6627;DHT22;3349;49.830;8.748;2022-07-17T04:58:21;12.60;75.10
6627;DHT22;3349;49.830;8.748;2022-07-17T05:00:48;12.70;74.90
6627;DHT22;3349;49.830;8.748;2022-07-17T05:03:17;12.80;74.60
6627;DHT22;3349;49.830;8.748;2022-07-17T05:05:44;12.90;75.30
6627;DHT22;3349;49.830;8.748;2022-07-17T05:08:11;13.00;75.40
6627;DHT22;3349;49.830;8.748;2022-07-17T05:10:38;13.10;75.90
6627;DHT22;3349;49.830;8.748;2022-07-17T05:13:04;13.20;75.40
6627;DHT22;3349;49.830;8.748;2022-07-17T05:15:31;13.40;72.70
6627;DHT22;3349;49.830;8.748;2022-07-17T05:17:58;13.50;70.80
6627;DHT22;3349;49.830;8.748;2022-07-17T05:20:26;13.70;68.70
6627;DHT22;3349;49.830;8.748;2022-07-17T05:22:52;13.80;68.80
6627;DHT22;3349;49.830;8.748;2022-07-17T05:25:19;14.00;68.70
6627;DHT22;3349;49.830;8.748;2022-07-17T05:27:46;14.10;67.50
6627;DHT22;3349;49.830;8.748;2022-07-17T05:30:13;14.30;67.40
6627;DHT22;3349;49.830;8.748;2022-07-17T05:32:40;14.40;67.10
6627;DHT22;3349;49.830;8.748;2022-07-17T05:35:07;14.50;68.30
6627;DHT22;3349;49.830;8.748;2022-07-17T05:37:35;14.60;65.00
6627;DHT22;3349;49.830;8.748;2022-07-17T05:40:03;14.80;62.80
6627;DHT22;3349;49.830;8.748;2022-07-17T05:42:30;14.90;60.70
6627;DHT22;3349;49.830;8.748;2022-07-17T05:44:56;15.10;58.90
6627;DHT22;3349;49.830;8.748;2022-07-17T05:47:24;15.20;58.90
6627;DHT22;3349;49.830;8.748;2022-07-17T05:49:51;15.30;57.80
6627;DHT22;3349;49.830;8.748;2022-07-17T05:52:18;15.40;57.20
6627;DHT22;3349;49.830;8.748;2022-07-17T05:54:46;15.50;58.00
6627;DHT22;3349;49.830;8.748;2022-07-17T05:57:13;15.50;56.90
6627;DHT22;3349;49.830;8.748;2022-07-17T05:59:39;15.60;56.00
6627;DHT22;3349;49.830;8.748;2022-07-17T06:02:06;15.70;55.60
6627;DHT22;3349;49.830;8.748;2022-07-17T06:04:33;15.80;55.10
6627;DHT22;3349;49.830;8.748;2022-07-17T06:07:00;15.80;54.80
6627;DHT22;3349;49.830;8.748;2022-07-17T06:09:27;16.00;54.30
6627;DHT22;3349;49.830;8.748;2022-07-17T06:11:55;16.10;53.50
6627;DHT22;3349;49.830;8.748;2022-07-17T06:14:21;16.20;53.70
6627;DHT22;3349;49.830;8.748;2022-07-17T06:16:50;16.20;53.60
6627;DHT22;3349;49.830;8.748;2022-07-17T06:19:16;16.30;52.90
6627;DHT22;3349;49.830;8.748;2022-07-17T06:21:43;16.40;52.60
6627;DHT22;3349;49.830;8.748;2022-07-17T06:24:10;16.50;52.30
6627;DHT22;3349;49.830;8.748;2022-07-17T06:26:36;16.60;51.70
6627;DHT22;3349;49.830;8.748;2022-07-17T06:29:04;16.70;52.10
6627;DHT22;3349;49.830;8.748;2022-07-17T06:31:31;16.70;51.00
6627;DHT22;3349;49.830;8.748;2022-07-17T06:33:58;16.70;51.30
6627;DHT22;3349;49.830;8.748;2022-07-17T06:36:25;16.90;51.60
6627;DHT22;3349;49.830;8.748;2022-07-17T06:38:52;16.90;51.20
6627;DHT22;3349;49.830;8.748;2022-07-17T06:41:19;17.00;50.20
6627;DHT22;3349;49.830;8.748;2022-07-17T06:43:46;17.10;49.70
6627;DHT22;3349;49.830;8.748;2022-07-17T06:46:14;17.20;50.00
6627;DHT22;3349;49.830;8.748;2022-07-17T06:48:41;17.30;49.80
6627;DHT22;3349;49.830;8.748;2022-07-17T06:51:08;17.40;49.70
6627;DHT22;3349;49.830;8.748;2022-07-17T06:53:35;17.50;49.50
6627;DHT22;3349;49.830;8.748;2022-07-17T06:56:02;17.50;49.50
6627;DHT22;3349;49.830;8.748;2022-07-17T06:58:28;17.60;49.00
6627;DHT22;3349;49.830;8.748;2022-07-17T07:00:55;17.70;48.50
6627;DHT22;3349;49.830;8.748;2022-07-17T07:03:23;17.80;48.30
6627;DHT22;3349;49.830;8.748;2022-07-17T07:05:50;17.90;47.70
6627;DHT22;3349;49.830;8.748;2022-07-17T07:08:17;18.00;46.90
6627;DHT22;3349;49.830;8.748;2022-07-17T07:10:44;18.10;47.40
6627;DHT22;3349;49.830;8.748;2022-07-17T07:13:11;18.20;48.00
6627;DHT22;3349;49.830;8.748;2022-07-17T07:15:39;18.40;47.30
6627;DHT22;3349;49.830;8.748;2022-07-17T07:18:05;18.50;46.60
6627;DHT22;3349;49.830;8.748;2022-07-17T07:20:34;18.60;45.60
6627;DHT22;3349;49.830;8.748;2022-07-17T07:23:01;18.70;46.20
6627;DHT22;3349;49.830;8.748;2022-07-17T07:25:28;18.80;46.10
6627;DHT22;3349;49.830;8.748;2022-07-17T07:27:54;19.00;45.70
6627;DHT22;3349;49.830;8.748;2022-07-17T07:30:21;19.00;45.40
6627;DHT22;3349;49.830;8.748;2022-07-17T07:32:48;19.10;45.20
6627;DHT22;3349;49.830;8.748;2022-07-17T07:35:15;19.30;44.40
6627;DHT22;3349;49.830;8.748;2022-07-17T07:37:43;19.60;44.20
6627;DHT22;3349;49.830;8.748;2022-07-17T07:40:11;19.60;43.70
6627;DHT22;3349;49.830;8.748;2022-07-17T07:42:38;19.80;43.90
6627;DHT22;3349;49.830;8.748;2022-07-17T07:45:06;20.10;43.10
6627;DHT22;3349;49.830;8.748;2022-07-17T07:47:41;20.20;42.50
6627;DHT22;3349;49.830;8.748;2022-07-17T07:50:08;20.40;41.60
6627;DHT22;3349;49.830;8.748;2022-07-17T07:52:35;20.70;40.70
6627;DHT22;3349;49.830;8.748;2022-07-17T07:55:04;20.90;40.80
6627;DHT22;3349;49.830;8.748;2022-07-17T07:57:31;21.10;40.10
6627;DHT22;3349;49.830;8.748;2022-07-17T07:59:58;21.30;39.50
6627;DHT22;3349;49.830;8.748;2022-07-17T08:02:24;21.50;39.90
6627;DHT22;3349;49.830;8.748;2022-07-17T08:04:51;21.80;39.40
6627;DHT22;3349;49.830;8.748;2022-07-17T08:07:18;22.20;38.40
6627;DHT22;3349;49.830;8.748;2022-07-17T08:09:45;22.70;37.50
6627;DHT22;3349;49.830;8.748;2022-07-17T08:12:13;23.30;35.40
6627;DHT22;3349;49.830;8.748;2022-07-17T08:14:40;24.20;33.70
6627;DHT22;3349;49.830;8.748;2022-07-17T08:17:07;25.20;32.40
6627;DHT22;3349;49.830;8.748;2022-07-17T08:19:34;26.10;31.00
6627;DHT22;3349;49.830;8.748;2022-07-17T08:22:00;27.20;29.30
6627;DHT22;3349;49.830;8.748;2022-07-17T08:24:27;28.30;28.40
6627;DHT22;3349;49.830;8.748;2022-07-17T08:26:54;29.30;26.60
6627;DHT22;3349;49.830;8.748;2022-07-17T08:29:22;29.90;26.00
6627;DHT22;3349;49.830;8.748;2022-07-17T08:31:49;30.70;24.90
6627;DHT22;3349;49.830;8.748;2022-07-17T08:34:18;31.00;24.00
6627;DHT22;3349;49.830;8.748;2022-07-17T08:36:45;31.50;23.50
6627;DHT22;3349;49.830;8.748;2022-07-17T08:39:12;32.50;22.60
6627;DHT22;3349;49.830;8.748;2022-07-17T08:41:39;32.60;21.70
6627;DHT22;3349;49.830;8.748;2022-07-17T08:44:07;32.50;21.50
6627;DHT22;3349;49.830;8.748;2022-07-17T08:46:36;32.90;21.40
6627;DHT22;3349;49.830;8.748;2022-07-17T08:49:05;33.20;20.70
6627;DHT22;3349;49.830;8.748;2022-07-17T08:51:32;33.60;19.70
6627;DHT22;3349;49.830;8.748;2022-07-17T08:54:00;33.80;20.00
6627;DHT22;3349;49.830;8.748;2022-07-17T08:56:27;34.10;19.00
6627;DHT22;3349;49.830;8.748;2022-07-17T08:58:54;33.60;19.40
6627;DHT22;3349;49.830;8.748;2022-07-17T09:01:22;34.00;19.60
6627;DHT22;3349;49.830;8.748;2022-07-17T09:03:56;34.60;18.60
6627;DHT22;3349;49.830;8.748;2022-07-17T09:06:23;34.90;17.80
6627;DHT22;3349;49.830;8.748;2022-07-17T09:09:03;35.60;17.50
6627;DHT22;3349;49.830;8.748;2022-07-17T09:11:42;35.00;17.90
6627;DHT22;3349;49.830;8.748;2022-07-17T09:14:09;35.70;16.60
6627;DHT22;3349;49.830;8.748;2022-07-17T09:16:36;34.80;17.10
6627;DHT22;3349;49.830;8.748;2022-07-17T09:19:24;35.30;17.20
6627;DHT22;3349;49.830;8.748;2022-07-17T09:21:51;36.60;16.60
6627;DHT22;3349;49.830;8.748;2022-07-17T09:24:18;37.20;15.90
6627;DHT22;3349;49.830;8.748;2022-07-17T09:26:45;37.30;15.70
6627;DHT22;3349;49.830;8.748;2022-07-17T09:29:11;37.90;14.90
6627;DHT22;3349;49.830;8.748;2022-07-17T09:31:38;37.40;14.60
6627;DHT22;3349;49.830;8.748;2022-07-17T09:34:05;35.80;15.50
6627;DHT22;3349;49.830;8.748;2022-07-17T09:36:58;35.60;16.40
6627;DHT22;3349;49.830;8.748;2022-07-17T09:39:34;36.00;16.80
6627;DHT22;3349;49.830;8.748;2022-07-17T09:42:01;35.20;16.20
6627;DHT22;3349;49.830;8.748;2022-07-17T09:44:28;34.50;17.30
6627;DHT22;3349;49.830;8.748;2022-07-17T09:46:55;35.20;16.80
6627;DHT22;3349;49.830;8.748;2022-07-17T09:49:26;37.10;16.10
6627;DHT22;3349;49.830;8.748;2022-07-17T09:51:54;36.00;16.00
6627;DHT22;3349;49.830;8.748;2022-07-17T09:54:23;37.40;15.30
6627;DHT22;3349;49.830;8.748;2022-07-17T09:56:50;38.10;14.60
6627;DHT22;3349;49.830;8.748;2022-07-17T09:59:18;37.90;14.10
6627;DHT22;3349;49.830;8.748;2022-07-17T10:01:46;38.30;14.30
6627;DHT22;3349;49.830;8.748;2022-07-17T10:04:15;38.40;14.60
6627;DHT22;3349;49.830;8.748;2022-07-17T10:06:43;37.70;14.60
6627;DHT22;3349;49.830;8.748;2022-07-17T10:09:11;38.30;15.00
6627;DHT22;3349;49.830;8.748;2022-07-17T10:11:40;39.70;13.70
6627;DHT22;3349;49.830;8.748;2022-07-17T10:14:09;38.60;13.40
6627;DHT22;3349;49.830;8.748;2022-07-17T10:16:37;38.40;14.00
6627;DHT22;3349;49.830;8.748;2022-07-17T10:19:15;38.30;13.50
6627;DHT22;3349;49.830;8.748;2022-07-17T10:21:52;39.20;13.90
6627;DHT22;3349;49.830;8.748;2022-07-17T10:24:21;39.20;13.10
6627;DHT22;3349;49.830;8.748;2022-07-17T10:26:48;39.30;13.30
6627;DHT22;3349;49.830;8.748;2022-07-17T10:29:30;39.70;12.60
6627;DHT22;3349;49.830;8.748;2022-07-17T10:31:58;39.40;12.50
6627;DHT22;3349;49.830;8.748;2022-07-17T10:34:44;39.10;12.80
6627;DHT22;3349;49.830;8.748;2022-07-17T10:37:22;39.20;12.80
6627;DHT22;3349;49.830;8.748;2022-07-17T10:39:59;37.40;13.60
6627;DHT22;3349;49.830;8.748;2022-07-17T10:42:43;37.60;13.10
6627;DHT22;3349;49.830;8.748;2022-07-17T10:45:12;38.70;13.30
6627;DHT22;3349;49.830;8.748;2022-07-17T10:47:52;38.80;13.50
6627;DHT22;3349;49.830;8.748;2022-07-17T10:50:22;39.90;12.80
6627;DHT22;3349;49.830;8.748;2022-07-17T10:52:59;39.20;12.40
6627;DHT22;3349;49.830;8.748;2022-07-17T10:55:29;39.70;12.50
6627;DHT22;3349;49.830;8.748;2022-07-17T10:57:56;39.70;11.70
6627;DHT22;3349;49.830;8.748;2022-07-17T11:00:24;40.90;10.80
6627;DHT22;3349;49.830;8.748;2022-07-17T11:02:51;40.80;10.80
6627;DHT22;3349;49.830;8.748;2022-07-17T11:05:18;39.90;10.90
6627;DHT22;3349;49.830;8.748;2022-07-17T11:07:54;40.70;10.70
6627;DHT22;3349;49.830;8.748;2022-07-17T11:10:22;40.40;10.90
6627;DHT22;3349;49.830;8.748;2022-07-17T11:12:52;38.80;11.20
6627;DHT22;3349;49.830;8.748;2022-07-17T11:15:19;39.10;11.60
6627;DHT22;3349;49.830;8.748;2022-07-17T11:17:48;39.50;11.90
6627;DHT22;3349;49.830;8.748;2022-07-17T11:20:16;40.80;11.20
6627;DHT22;3349;49.830;8.748;2022-07-17T11:22:44;40.90;10.50
6627;DHT22;3349;49.830;8.748;2022-07-17T11:25:11;40.50;10.10
6627;DHT22;3349;49.830;8.748;2022-07-17T11:27:38;39.20;10.00
6627;DHT22;3349;49.830;8.748;2022-07-17T11:30:11;38.80;10.30
6627;DHT22;3349;49.830;8.748;2022-07-17T11:32:41;39.70;9.50
6627;DHT22;3349;49.830;8.748;2022-07-17T11:35:18;39.50;10.00
6627;DHT22;3349;49.830;8.748;2022-07-17T11:37:48;39.90;10.20
6627;DHT22;3349;49.830;8.748;2022-07-17T11:40:15;39.90;10.40
6627;DHT22;3349;49.830;8.748;2022-07-17T11:42:43;39.70;10.10
6627;DHT22;3349;49.830;8.748;2022-07-17T11:45:12;39.60;10.10
6627;DHT22;3349;49.830;8.748;2022-07-17T11:47:40;38.20;9.80
6627;DHT22;3349;49.830;8.748;2022-07-17T11:50:10;39.30;9.60
6627;DHT22;3349;49.830;8.748;2022-07-17T11:52:43;39.80;9.50
6627;DHT22;3349;49.830;8.748;2022-07-17T11:55:11;40.10;9.00
6627;DHT22;3349;49.830;8.748;2022-07-17T11:57:44;40.50;9.10
6627;DHT22;3349;49.830;8.748;2022-07-17T12:00:14;40.60;9.20
6627;DHT22;3349;49.830;8.748;2022-07-17T12:02:42;40.80;9.10
6627;DHT22;3349;49.830;8.748;2022-07-17T12:05:09;40.50;9.00
6627;DHT22;3349;49.830;8.748;2022-07-17T12:07:42;40.70;9.10
6627;DHT22;3349;49.830;8.748;2022-07-17T12:10:13;40.30;8.70
6627;DHT22;3349;49.830;8.748;2022-07-17T12:12:52;40.60;9.00
6627;DHT22;3349;49.830;8.748;2022-07-17T12:15:21;41.40;9.30
6627;DHT22;3349;49.830;8.748;2022-07-17T12:17:48;41.90;8.60
6627;DHT22;3349;49.830;8.748;2022-07-17T12:20:15;41.30;8.60
6627;DHT22;3349;49.830;8.748;2022-07-17T12:22:44;41.20;9.50
6627;DHT22;3349;49.830;8.748;2022-07-17T12:25:22;39.60;9.60
6627;DHT22;3349;49.830;8.748;2022-07-17T12:27:49;40.40;10.50
6627;DHT22;3349;49.830;8.748;2022-07-17T12:30:16;40.60;9.80
6627;DHT22;3349;49.830;8.748;2022-07-17T12:32:45;40.40;9.80
6627;DHT22;3349;49.830;8.748;2022-07-17T12:35:12;39.70;9.60
6627;DHT22;3349;49.830;8.748;2022-07-17T12:37:39;39.80;10.00
6627;DHT22;3349;49.830;8.748;2022-07-17T12:40:08;39.50;10.90
6627;DHT22;3349;49.830;8.748;2022-07-17T12:42:35;40.30;10.20
6627;DHT22;3349;49.830;8.748;2022-07-17T12:45:03;40.70;9.90
6627;DHT22;3349;49.830;8.748;2022-07-17T12:47:30;40.70;9.70
6627;DHT22;3349;49.830;8.748;2022-07-17T12:49:58;40.40;9.40
6627;DHT22;3349;49.830;8.748;2022-07-17T12:52:25;40.20;9.80
6627;DHT22;3349;49.830;8.748;2022-07-17T12:54:52;39.90;9.90
6627;DHT22;3349;49.830;8.748;2022-07-17T12:57:19;39.40;9.50
6627;DHT22;3349;49.830;8.748;2022-07-17T12:59:45;39.40;9.90
6627;DHT22;3349;49.830;8.748;2022-07-17T13:02:12;39.30;9.40
6627;DHT22;3349;49.830;8.748;2022-07-17T13:04:39;39.20;8.90
6627;DHT22;3349;49.830;8.748;2022-07-17T13:07:07;38.70;8.80
6627;DHT22;3349;49.830;8.748;2022-07-17T13:09:34;38.40;8.90
6627;DHT22;3349;49.830;8.748;2022-07-17T13:12:02;38.20;8.90
6627;DHT22;3349;49.830;8.748;2022-07-17T13:14:29;37.40;9.20
6627;DHT22;3349;49.830;8.748;2022-07-17T13:16:55;37.10;9.40
6627;DHT22;3349;49.830;8.748;2022-07-17T13:19:23;36.80;10.10
6627;DHT22;3349;49.830;8.748;2022-07-17T13:21:50;36.30;10.80
6627;DHT22;3349;49.830;8.748;2022-07-17T13:24:18;36.60;9.90
6627;DHT22;3349;49.830;8.748;2022-07-17T13:26:45;36.70;9.10
6627;DHT22;3349;49.830;8.748;2022-07-17T13:29:11;36.10;9.40
6627;DHT22;3349;49.830;8.748;2022-07-17T13:31:38;35.30;9.70
6627;DHT22;3349;49.830;8.748;2022-07-17T13:34:05;34.60;9.60
6627;DHT22;3349;49.830;8.748;2022-07-17T13:36:32;33.90;9.70
6627;DHT22;3349;49.830;8.748;2022-07-17T13:38:59;33.20;10.00
6627;DHT22;3349;49.830;8.748;2022-07-17T13:41:27;32.80;10.30
6627;DHT22;3349;49.830;8.748;2022-07-17T13:43:54;32.30;11.20
6627;DHT22;3349;49.830;8.748;2022-07-17T13:46:21;31.80;11.10
6627;DHT22;3349;49.830;8.748;2022-07-17T13:48:47;31.80;11.10
6627;DHT22;3349;49.830;8.748;2022-07-17T13:51:14;31.60;11.20
6627;DHT22;3349;49.830;8.748;2022-07-17T13:53:41;31.40;12.10
6627;DHT22;3349;49.830;8.748;2022-07-17T13:56:08;31.30;12.50
6627;DHT22;3349;49.830;8.748;2022-07-17T13:58:37;31.20;12.20
6627;DHT22;3349;49.830;8.748;2022-07-17T14:01:04;31.20;11.80
6627;DHT22;3349;49.830;8.748;2022-07-17T14:03:31;31.10;11.80
6627;DHT22;3349;49.830;8.748;2022-07-17T14:05:58;30.90;11.90
6627;DHT22;3349;49.830;8.748;2022-07-17T14:08:25;31.00;12.10
6627;DHT22;3349;49.830;8.748;2022-07-17T14:10:52;30.70;11.90
6627;DHT22;3349;49.830;8.748;2022-07-17T14:13:19;30.60;11.50
6627;DHT22;3349;49.830;8.748;2022-07-17T14:15:47;31.00;11.20
6627;DHT22;3349;49.830;8.748;2022-07-17T14:18:14;31.10;11.00
6627;DHT22;3349;49.830;8.748;2022-07-17T14:20:40;31.10;11.10
6627;DHT22;3349;49.830;8.748;2022-07-17T14:23:07;31.50;11.00
6627;DHT22;3349;49.830;8.748;2022-07-17T14:25:34;32.30;10.80
6627;DHT22;3349;49.830;8.748;2022-07-17T14:28:01;32.80;10.60
6627;DHT22;3349;49.830;8.748;2022-07-17T14:30:28;33.50;9.60
6627;DHT22;3349;49.830;8.748;2022-07-17T14:32:56;33.40;10.20
6627;DHT22;3349;49.830;8.748;2022-07-17T14:35:22;33.40;9.50
6627;DHT22;3349;49.830;8.748;2022-07-17T14:37:49;33.70;9.60
6627;DHT22;3349;49.830;8.748;2022-07-17T14:40:16;33.40;9.50
6627;DHT22;3349;49.830;8.748;2022-07-17T14:42:43;33.80;9.70
6627;DHT22;3349;49.830;8.748;2022-07-17T14:45:10;33.60;9.60
6627;DHT22;3349;49.830;8.748;2022-07-17T14:47:38;33.20;9.40
6627;DHT22;3349;49.830;8.748;2022-07-17T14:50:09;33.60;10.30
6627;DHT22;3349;49.830;8.748;2022-07-17T14:52:36;34.30;9.80
6627;DHT22;3349;49.830;8.748;2022-07-17T14:55:04;33.90;9.70
6627;DHT22;3349;49.830;8.748;2022-07-17T14:57:31;33.90;9.70
6627;DHT22;3349;49.830;8.748;2022-07-17T14:59:58;33.90;9.70
6627;DHT22;3349;49.830;8.748;2022-07-17T15:02:24;33.60;9.60
6627;DHT22;3349;49.830;8.748;2022-07-17T15:04:51;33.80;10.10
6627;DHT22;3349;49.830;8.748;2022-07-17T15:07:19;33.40;9.50
6627;DHT22;3349;49.830;8.748;2022-07-17T15:09:46;33.20;9.50
6627;DHT22;3349;49.830;8.748;2022-07-17T15:12:13;32.40;10.40
6627;DHT22;3349;49.830;8.748;2022-07-17T15:14:40;32.30;10.00
6627;DHT22;3349;49.830;8.748;2022-07-17T15:17:07;32.10;10.00
6627;DHT22;3349;49.830;8.748;2022-07-17T15:19:34;32.00;10.70
6627;DHT22;3349;49.830;8.748;2022-07-17T15:22:01;32.00;10.90
6627;DHT22;3349;49.830;8.748;2022-07-17T15:24:29;31.80;10.60
6627;DHT22;3349;49.830;8.748;2022-07-17T15:26:56;31.90;10.20
6627;DHT22;3349;49.830;8.748;2022-07-17T15:29:23;31.50;10.00
6627;DHT22;3349;49.830;8.748;2022-07-17T15:31:50;31.40;10.40
6627;DHT22;3349;49.830;8.748;2022-07-17T15:34:17;31.40;10.30
6627;DHT22;3349;49.830;8.748;2022-07-17T15:36:44;31.20;10.60
6627;DHT22;3349;49.830;8.748;2022-07-17T15:39:11;31.20;10.60
6627;DHT22;3349;49.830;8.748;2022-07-17T15:41:42;31.20;9.90
6627;DHT22;3349;49.830;8.748;2022-07-17T15:44:09;31.10;10.70
6627;DHT22;3349;49.830;8.748;2022-07-17T15:46:35;31.00;9.80
6627;DHT22;3349;49.830;8.748;2022-07-17T15:49:03;31.00;10.20
6627;DHT22;3349;49.830;8.748;2022-07-17T15:51:30;31.00;10.60
6627;DHT22;3349;49.830;8.748;2022-07-17T15:53:57;31.10;10.60
6627;DHT22;3349;49.830;8.748;2022-07-17T15:56:24;31.10;10.50
6627;DHT22;3349;49.830;8.748;2022-07-17T15:58:52;31.00;10.40
6627;DHT22;3349;49.830;8.748;2022-07-17T16:01:19;31.00;10.30
6627;DHT22;3349;49.830;8.748;2022-07-17T16:03:46;30.80;10.80
6627;DHT22;3349;49.830;8.748;2022-07-17T16:06:13;30.70;11.60
6627;DHT22;3349;49.830;8.748;2022-07-17T16:08:40;30.80;11.40